Fort Assiniboine, Canada
Current Conditions -  °F | °C
As of 10:43 AM on Thursday 30 Oct 2014 (Local Time) from CYZU Reporting Station
Moderate Fog Moderate Fog  
Wind Chill: 21°   Ceiling: 200
Heat Index: 30°   Visibility: 0.12mi
Dew Point: 30°   Wind: 12mph
Humidity: 100%   Direction: 110°ESE
Pressure: 30.12"   Gusts: NA
Location:  54.33°N, 114.77°W
Report Text: CYZU 301643Z 11010KT 1/8SM FZFG VV002 M01/M01 A3012 RMK FG8 TR RIME ON INDICATOR SLP234
Loading
Personal Weather Stations






























Interactive Weather Map
Tropical Storm Tracking
New forecast layout! Learn more

10-Day Weather Forecast

Advertisements
Track Severe Weather on mobile